»·PEaware :: DAL1788 KLAX-KSAN

DAL1788 :: KLAX-KSAN

FLIGHT INFORMATION

Flight Status: Arrived
Operator:
Delta Air Lines
More flights by this operator :: More flights under this callsign
Pilot: Travis O. (16343)
Aircraft: Unknown
(B727)
More flights by this aircraft type
Origin: KLAX Los Angeles Intl
United States
Destination: KSAN San Diego Intl-Lindbergh
United States
More flights between these airports :: More routes between these airports
Route: +LAXX1 MZB
File this flight plan on PilotEdge
Remarks: Vectors MZB would be nice
Altitude:
(Current/Filed)
11,000ft
Speed:
(Current/Filed)
300kts
Departed: 04-Jan-18 09:24 PM
Arrived: 04-Jan-18 10:01 PM
Distance/Time
Traveled:
94nm/0:37
Distance/Time
To Go:
Arrived

Flight Plot

Page will automatically refresh every two minutes.

Flight plan parsing failed; only flown route is shown


Map Options




Map Legend


Flown Route
Filed Route
Departure Airport
Arrival Airport
Navaid (VOR, NDB)
Fix

Horizontal Profiles

Position Reports

Time Latitude Longitude Heading Altitude Ground
Speed
04-Jan-18 21:12 33.947279 -118.403932 193 117ft 0kts
04-Jan-18 21:13 33.947279 -118.403932 193 117ft 0kts
04-Jan-18 21:14 33.947279 -118.403932 193 117ft 0kts
04-Jan-18 21:15 33.947279 -118.403932 193 117ft 0kts
04-Jan-18 21:16 33.947279 -118.403932 193 117ft 0kts
04-Jan-18 21:17 33.947279 -118.403932 193 117ft 0kts
04-Jan-18 21:18 33.947279 -118.403932 193 117ft 0kts
04-Jan-18 21:19 33.947279 -118.403932 193 117ft 0kts
04-Jan-18 21:20 33.947279 -118.403932 193 117ft 0kts
04-Jan-18 21:21 33.947279 -118.403932 193 117ft 0kts
04-Jan-18 21:22 33.947538 -118.403860 193 117ft 2kts
04-Jan-18 21:23 33.947988 -118.404193 104 117ft 2kts
04-Jan-18 21:24 33.947985 -118.404534 83 117ft 0kts
04-Jan-18 21:25 33.947985 -118.404533 83 117ft 0kts
04-Jan-18 21:26 33.948033 -118.403934 83 117ft 13kts
04-Jan-18 21:27 33.949140 -118.401483 83 117ft 12kts
04-Jan-18 21:28 33.949246 -118.400963 57 117ft 0kts
04-Jan-18 21:29 33.949246 -118.400963 57 117ft 0kts
04-Jan-18 21:30 33.950046 -118.402862 263 117ft 49kts
04-Jan-18 21:31 33.945360 -118.452308 264 1076ft 190kts
04-Jan-18 21:32 33.938846 -118.518854 262 3699ft 213kts
04-Jan-18 21:33 33.923682 -118.587349 219 6378ft 225kts
04-Jan-18 21:34 33.865774 -118.586984 173 8880ft 228kts
04-Jan-18 21:35 33.804473 -118.573121 173 11023ft 238kts
04-Jan-18 21:36 33.724810 -118.552549 154 10990ft 355kts
04-Jan-18 21:37 33.661183 -118.446330 122 10978ft 409kts
04-Jan-18 21:38 33.613867 -118.328374 113 11012ft 377kts
04-Jan-18 21:39 33.572539 -118.217872 117 10985ft 355kts
04-Jan-18 21:40 33.529887 -118.113214 118 10990ft 343kts
04-Jan-18 21:41 33.487911 -118.011261 118 11003ft 347kts
04-Jan-18 21:42 33.443255 -117.903217 118 10998ft 376kts
04-Jan-18 21:43 33.395177 -117.787337 117 10979ft 400kts
04-Jan-18 21:44 33.344468 -117.665505 117 10981ft 417kts
04-Jan-18 21:45 33.291833 -117.539620 117 10979ft 432kts
04-Jan-18 21:46 33.238943 -117.412199 117 10947ft 413kts
04-Jan-18 21:47 33.158732 -117.344455 187 10930ft 359kts
04-Jan-18 21:48 33.065407 -117.338680 164 10980ft 331kts
04-Jan-18 21:49 32.982090 -117.307574 162 10107ft 317kts
04-Jan-18 21:50 32.901315 -117.273562 162 8106ft 283kts
04-Jan-18 21:51 32.831823 -117.245451 162 6968ft 264kts
04-Jan-18 21:52 32.773604 -117.200836 103 7017ft 270kts
04-Jan-18 21:53 32.757961 -117.111444 100 6070ft 261kts
04-Jan-18 21:54 32.743725 -117.029461 100 4973ft 250kts
04-Jan-18 21:55 32.730662 -116.953780 100 4976ft 226kts
04-Jan-18 21:56 32.718300 -116.881592 100 4980ft 223kts
04-Jan-18 21:57 32.705988 -116.809052 101 4963ft 228kts
04-Jan-18 21:58 32.656331 -116.794122 232 4967ft 229kts
04-Jan-18 21:59 32.655059 -116.864365 284 4957ft 212kts
04-Jan-18 22:00 32.668511 -116.920078 284 4087ft 149kts
04-Jan-18 22:01 32.677265 -116.966315 286 3851ft 157kts
04-Jan-18 22:02 32.690016 -117.013287 287 3051ft 149kts
04-Jan-18 22:03 32.702025 -117.059118 289 2572ft 143kts
04-Jan-18 22:04 32.712417 -117.102678 287 1519ft 142kts
04-Jan-18 22:05 32.723355 -117.147330 287 846ft 135kts
04-Jan-18 22:06 32.733027 -117.187405 287 26ft 94kts
04-Jan-18 22:07 32.734062 -117.195929 278 28ft 0kts
04-Jan-18 22:08 32.734063 -117.195935 278 28ft 0kts
04-Jan-18 22:09 32.734389 -117.197519 284 27ft 17kts
04-Jan-18 22:10 32.734014 -117.200163 251 28ft 7kts
04-Jan-18 22:11 32.733927 -117.200531 255 28ft 0kts

Navigation Log

Ident Type
Flight plan parsing failed, navigation log unavailable